ADDS METAR Data

Data at: 0532 UTC 19 Jan 2018

METAR for:KPSM (Portsmouth Intl, NH, US)
Text:KPSM 190456Z 25004KT 10SM FEW040 FEW200 M07/M10 A2991 RMK AO2A SLP132 T10691098 410121091
Temperature: -6.9°C ( 20°F)
Dewpoint: -9.8°C ( 14°F) [RH = 80%]
Pressure (altimeter):29.91 inches Hg (1013.0 mb) [Sea level pressure: 1013.2 mb]
Winds:from the WSW (250 degrees) at 5 MPH (4 knots; 2.1 m/s)
Visibility:10 or more sm (16+ km)
Ceiling:at least 12,000 feet AGL
Clouds: few clouds at 4000 feet AGL, few clouds at 20000 feet AGL